PDT,Max TemperatureF,Mean TemperatureF,Min TemperatureF,Max Dew PointF,MeanDew PointF,Min DewpointF,Max Humidity, Mean Humidity, Min Humidity, Max Sea Level PressureIn, Mean Sea Level PressureIn, Min Sea Level PressureIn, Max VisibilityMiles, Mean VisibilityMiles, Min VisibilityMiles, Max Wind SpeedMPH, Mean Wind SpeedMPH, Max Gust SpeedMPH,PrecipitationIn, CloudCover, Events, WindDirDegrees
2013-8-1,62,58,53,54,53,51,100,88,75,30.18,30.14,30.12,10,8,0,13,5,,0.00,6,Fog,334
2013-8-2,60,55,51,54,52,50,100,95,78,30.15,30.09,30.03,10,4,0,16,5,21,0.00,6,Fog,332
2013-8-3,59,54,51,52,52,51,100,94,82,30.03,30.00,29.98,10,5,0,8,3,,0.01,8,Fog,270
2013-8-4,60,55,51,54,52,51,100,93,78,30.02,29.99,29.97,10,8,2,9,5,,0.00,7,,211
2013-8-5,59,54,50,52,51,50,100,95,78,30.04,30.00,29.97,10,4,0,10,5,,0.00,7,Fog,222
2013-8-6,57,52,48,52,49,48,100,95,80,30.06,30.02,29.97,10,4,0,8,2,,0.01,8,Fog,271
2013-8-7,61,54,48,54,52,47,100,89,77,30.12,30.08,30.03,10,10,3,13,5,69,0.00,7,,336
2013-8-8,61,53,46,54,51,45,100,92,72,30.09,30.03,29.98,10,7,0,8,2,,0.00,6,Fog,300
2013-8-9,61,56,51,54,53,51,100,95,77,30.01,29.96,29.93,10,4,0,13,4,,0.01,7,Fog,246
2013-8-10,62,56,51,55,53,52,100,93,77,30.10,30.06,29.99,10,4,0,8,5,,0.00,7,Fog,299
2013-8-11,61,56,53,54,53,52,100,90,77,30.10,30.07,30.03,10,8,3,12,3,16,0.00,7,,337
2013-8-12,61,56,50,54,53,49,100,93,77,30.10,30.06,30.02,10,7,0,14,3,26,0.00,6,Fog,324
2013-8-13,60,54,48,54,52,47,100,92,82,30.09,30.06,30.02,10,9,2,9,2,,0.00,6,,305
2013-8-14,73,58,46,61,51,45,100,93,56,30.06,30.02,29.99,10,4,0,8,2,,0.01,3,Fog,159
2013-8-15,71,64,57,62,60,55,100,91,73,30.01,29.99,29.95,10,6,0,8,2,39,0.00,4,Fog,303
2013-8-16,68,62,55,63,60,53,100,94,73,30.09,30.02,29.98,10,5,0,13,2,,0.02,6,Fog,325
2013-8-17,71,60,52,59,56,51,100,86,68,30.10,30.07,30.05,10,10,10,20,5,29,0.00,1,,334
2013-8-18,66,60,54,58,56,53,100,92,68,30.04,29.99,29.95,10,6,0,13,3,,0.00,6,Fog,316
2013-8-19,70,60,51,56,53,50,97,83,61,29.98,29.95,29.92,10,10,7,17,4,21,0.00,0,,248
2013-8-20,62,56,50,54,52,49,100,88,75,29.94,29.90,29.88,10,9,5,10,3,,0.01,1,,172
2013-8-21,60,56,51,55,54,50,100,96,82,29.98,29.93,29.88,10,5,0,14,5,,0.00,8,Fog,346
2013-8-22,64,57,53,55,54,52,100,92,75,30.02,29.97,29.94,10,7,0,10,3,,0.00,7,Fog-Thunderstorm,312
2013-8-23,64,56,50,55,53,48,100,94,72,30.01,29.97,29.93,10,6,0,16,4,16,0.01,5,Fog,339
2013-8-24,62,56,50,55,54,50,100,95,81,29.95,29.92,29.89,10,4,0,10,3,,0.00,7,Fog,313
2013-8-25,63,56,51,57,54,52,100,95,78,29.99,29.95,29.91,10,4,0,7,2,,0.03,6,Fog-Rain,281
2013-8-26,68,57,48,56,52,48,100,90,63,30.06,30.01,29.97,10,5,0,9,2,,0.00,2,Fog,224
2013-8-27,70,58,48,59,56,48,100,88,58,29.99,29.91,29.88,10,8,0,9,2,,0.01,3,Fog,273
2013-8-28,70,61,53,63,58,52,100,88,68,29.96,29.92,29.87,10,8,0,8,1,,0.00,5,Fog,261
2013-8-29,72,65,59,62,61,58,100,91,68,30.12,30.01,29.92,10,7,0,8,2,,0.01,6,Fog-Rain,208
2013-8-30,70,62,54,61,59,54,100,92,71,30.13,30.09,30.04,10,5,0,13,4,,0.00,3,Fog,309
2013-8-31,63,58,53,58,56,52,100,96,77,30.05,30.00,29.95,10,4,0,7,2,,0.01,6,Fog,308